createdAt,value
2017-08-20T00:02:08.898Z,6.83
2017-08-20T00:04:36.457Z,6.70
2017-08-20T00:07:03.967Z,6.90
2017-08-20T00:09:31.476Z,7.00
2017-08-20T00:11:59.011Z,7.53
2017-08-20T00:14:26.523Z,6.90
2017-08-20T00:16:54.031Z,7.00
2017-08-20T00:19:21.566Z,6.30
2017-08-20T00:21:49.084Z,7.70
2017-08-20T00:24:16.594Z,6.80
2017-08-20T00:26:44.131Z,6.70
2017-08-20T00:29:11.639Z,6.20
2017-08-20T00:31:39.142Z,5.97
2017-08-20T00:34:06.670Z,6.43
2017-08-20T00:36:34.190Z,6.63
2017-08-20T00:39:01.703Z,6.80
2017-08-20T00:41:29.244Z,5.73
2017-08-20T00:43:56.763Z,5.70
2017-08-20T00:46:24.275Z,6.40
2017-08-20T00:48:51.831Z,6.10
2017-08-20T00:51:19.335Z,5.70
2017-08-20T00:53:46.846Z,6.37
2017-08-20T00:56:14.379Z,6.07
2017-08-20T00:58:41.883Z,5.30
2017-08-20T01:01:09.410Z,5.63
2017-08-20T01:03:36.957Z,6.30
2017-08-20T01:06:04.467Z,5.80
2017-08-20T01:08:31.972Z,5.90
2017-08-20T01:10:59.502Z,6.40
2017-08-20T01:13:27.010Z,5.90
2017-08-20T01:15:54.523Z,5.63
2017-08-20T01:18:22.174Z,6.40
2017-08-20T01:20:49.689Z,8.30
2017-08-20T01:23:17.211Z,10.23
2017-08-20T01:25:44.782Z,13.30
2017-08-20T01:28:12.300Z,19.83
2017-08-20T01:30:39.821Z,19.07
2017-08-20T01:33:07.367Z,19.60
2017-08-20T01:35:34.902Z,22.47
2017-08-20T01:38:02.443Z,20.97
2017-08-20T01:40:29.982Z,22.87
2017-08-20T01:42:57.506Z,22.03
2017-08-20T01:45:25.022Z,19.63
2017-08-20T01:47:52.557Z,18.60
2017-08-20T01:50:20.066Z,17.93
2017-08-20T01:52:47.611Z,14.80
2017-08-20T01:55:15.143Z,13.37
2017-08-20T01:57:42.651Z,12.37
2017-08-20T02:00:10.186Z,9.23
2017-08-20T02:02:37.695Z,7.27
2017-08-20T02:05:05.198Z,7.57
2017-08-20T02:07:32.770Z,6.87
2017-08-20T02:10:00.290Z,6.57
2017-08-20T02:12:27.799Z,6.40
2017-08-20T02:14:55.331Z,7.37
2017-08-20T02:17:22.839Z,7.20
2017-08-20T02:19:50.351Z,7.90
2017-08-20T02:22:17.875Z,8.77
2017-08-20T02:24:45.388Z,10.03
2017-08-20T02:27:12.904Z,9.60
2017-08-20T02:29:40.438Z,11.43
2017-08-20T02:32:07.962Z,7.83
2017-08-20T02:34:35.470Z,6.40
2017-08-20T02:37:02.999Z,5.50
2017-08-20T02:39:30.532Z,7.63
2017-08-20T02:41:58.039Z,5.80
2017-08-20T02:44:25.573Z,5.80
2017-08-20T02:46:53.079Z,6.17
2017-08-20T02:49:20.584Z,5.20
2017-08-20T02:51:48.121Z,5.00
2017-08-20T02:54:15.639Z,5.30
2017-08-20T02:56:43.183Z,5.40
2017-08-20T02:59:10.688Z,5.77
2017-08-20T03:01:38.258Z,5.00
2017-08-20T03:04:05.763Z,5.20
2017-08-20T03:06:33.268Z,5.10
2017-08-20T03:09:00.794Z,5.20
2017-08-20T03:11:28.303Z,5.63
2017-08-20T03:13:55.815Z,5.20
2017-08-20T03:16:23.366Z,5.20
2017-08-20T03:18:50.884Z,6.90
2017-08-20T03:21:18.726Z,7.60
2017-08-20T03:23:46.238Z,7.77
2017-08-20T03:26:13.758Z,9.40
2017-08-20T03:28:41.330Z,9.00
2017-08-20T03:31:08.834Z,9.07
2017-08-20T03:33:36.373Z,9.53
2017-08-20T03:36:03.898Z,8.40
2017-08-20T03:38:31.537Z,9.60
2017-08-20T03:40:59.094Z,9.13
2017-08-20T03:43:26.606Z,9.97
2017-08-20T03:45:54.123Z,9.23
2017-08-20T03:48:21.666Z,8.60
2017-08-20T03:50:49.178Z,8.67
2017-08-20T03:53:16.683Z,8.30
2017-08-20T03:55:44.223Z,9.03
2017-08-20T03:58:11.763Z,7.33
2017-08-20T04:00:39.323Z,8.30
2017-08-20T04:03:06.842Z,10.17
2017-08-20T04:05:34.353Z,10.07
2017-08-20T04:08:01.885Z,9.70
2017-08-20T04:10:29.390Z,8.90
2017-08-20T04:12:56.905Z,8.00
2017-08-20T04:15:24.478Z,8.50
2017-08-20T04:17:51.987Z,8.47
2017-08-20T04:20:19.497Z,8.00
2017-08-20T04:22:47.064Z,8.53
2017-08-20T04:25:14.588Z,7.73
2017-08-20T04:27:42.107Z,9.20
2017-08-20T04:30:09.647Z,8.27
2017-08-20T04:32:37.155Z,8.40
2017-08-20T04:35:04.671Z,7.73
2017-08-20T04:37:32.203Z,7.80
2017-08-20T04:39:59.715Z,8.97
2017-08-20T04:42:27.236Z,7.10
2017-08-20T04:44:54.762Z,7.67
2017-08-20T04:47:22.271Z,7.63
2017-08-20T04:49:49.798Z,7.07
2017-08-20T04:52:17.311Z,7.27
2017-08-20T04:54:44.814Z,6.70
2017-08-20T04:57:12.346Z,7.77
2017-08-20T04:59:39.882Z,7.90
2017-08-20T05:02:07.390Z,7.53
2017-08-20T05:04:35.734Z,7.37
2017-08-20T05:07:03.262Z,8.60
2017-08-20T05:09:30.789Z,8.50
2017-08-20T05:11:58.298Z,6.80
2017-08-20T05:14:25.830Z,6.80
2017-08-20T05:16:53.330Z,6.60
2017-08-20T05:19:20.838Z,6.83
2017-08-20T05:21:48.365Z,7.70
2017-08-20T05:24:15.869Z,7.40
2017-08-20T05:26:43.378Z,6.83
2017-08-20T05:29:10.959Z,7.37
2017-08-20T05:31:38.559Z,7.00
2017-08-20T05:34:06.070Z,6.60
2017-08-20T05:36:33.610Z,6.40
2017-08-20T05:39:01.123Z,6.70
2017-08-20T05:41:28.635Z,6.43
2017-08-20T05:43:56.179Z,6.40
2017-08-20T05:46:23.682Z,6.60
2017-08-20T05:48:51.194Z,6.47
2017-08-20T05:51:18.723Z,6.30
2017-08-20T05:53:46.239Z,6.73
2017-08-20T05:56:13.746Z,8.10
2017-08-20T05:58:41.278Z,6.80
2017-08-20T06:01:08.815Z,6.80
2017-08-20T06:03:36.322Z,6.33
2017-08-20T06:06:03.863Z,7.20
2017-08-20T06:08:31.371Z,7.30
2017-08-20T06:10:58.891Z,8.10
2017-08-20T06:13:26.439Z,7.30
2017-08-20T06:15:53.956Z,6.97
2017-08-20T06:18:21.467Z,6.40
2017-08-20T06:20:49.008Z,6.33
2017-08-20T06:23:16.516Z,6.60
2017-08-20T06:25:44.032Z,6.60
2017-08-20T06:28:11.572Z,7.50
2017-08-20T06:30:39.079Z,5.93
2017-08-20T06:33:06.827Z,5.97
2017-08-20T06:35:34.398Z,6.40
2017-08-20T06:38:01.906Z,6.10
2017-08-20T06:40:29.410Z,6.33
2017-08-20T06:42:56.951Z,6.70
2017-08-20T06:45:24.455Z,5.60
2017-08-20T06:47:51.966Z,6.20
2017-08-20T06:50:19.462Z,6.60
2017-08-20T06:52:47.004Z,5.80
2017-08-20T06:55:14.519Z,5.80
2017-08-20T06:57:42.072Z,5.70
2017-08-20T07:00:09.589Z,5.87
2017-08-20T07:02:37.100Z,4.23
2017-08-20T07:05:04.637Z,6.13
2017-08-20T07:07:32.143Z,5.27
2017-08-20T07:09:59.663Z,4.73
2017-08-20T07:12:27.190Z,4.60
2017-08-20T07:14:54.694Z,4.53
2017-08-20T07:17:22.195Z,4.70
2017-08-20T07:19:49.726Z,5.47
2017-08-20T07:22:17.227Z,4.90
2017-08-20T07:24:44.789Z,4.90
2017-08-20T07:27:12.334Z,4.90
2017-08-20T07:29:39.836Z,4.70
2017-08-20T07:32:07.339Z,4.80
2017-08-20T07:34:34.870Z,4.90
2017-08-20T07:37:02.370Z,4.20
2017-08-20T07:39:29.883Z,4.67
2017-08-20T07:41:57.405Z,4.70
2017-08-20T07:44:24.907Z,4.80
2017-08-20T07:46:52.407Z,4.63
2017-08-20T07:49:19.938Z,4.40
2017-08-20T07:51:47.443Z,4.80
2017-08-20T07:54:14.951Z,5.07
2017-08-20T07:56:42.483Z,4.60
2017-08-20T07:59:09.982Z,4.60
2017-08-20T08:01:37.494Z,4.53
2017-08-20T08:04:05.017Z,4.13
2017-08-20T08:06:32.527Z,5.00
2017-08-20T08:09:00.035Z,4.70
2017-08-20T08:11:27.575Z,4.80
2017-08-20T08:13:55.078Z,4.50
2017-08-20T08:16:22.583Z,4.50
2017-08-20T08:18:50.107Z,4.20
2017-08-20T08:21:17.610Z,4.80
2017-08-20T08:23:45.125Z,4.57
2017-08-20T08:26:12.661Z,3.87
2017-08-20T08:28:40.330Z,4.70
2017-08-20T08:31:07.925Z,4.17
2017-08-20T08:33:35.479Z,4.37
2017-08-20T08:36:03.014Z,4.20
2017-08-20T08:38:30.524Z,4.50
2017-08-20T08:40:58.103Z,4.20
2017-08-20T08:43:25.898Z,4.77
2017-08-20T08:45:53.475Z,4.20
2017-08-20T08:48:21.385Z,4.53
2017-08-20T08:52:54.318Z,4.80
2017-08-20T08:55:21.827Z,4.23
2017-08-20T08:57:49.335Z,3.97
2017-08-20T09:00:16.864Z,4.37
2017-08-20T09:02:44.362Z,4.70
2017-08-20T09:05:11.863Z,4.70
2017-08-20T09:07:39.399Z,4.57
2017-08-20T09:10:06.902Z,5.00
2017-08-20T09:12:34.410Z,4.70
2017-08-20T09:15:01.938Z,3.87
2017-08-20T09:17:29.414Z,4.00
2017-08-20T09:19:56.983Z,4.20
2017-08-20T09:22:24.498Z,3.60
2017-08-20T09:24:52.005Z,4.20
2017-08-20T09:27:19.530Z,4.20
2017-08-20T09:29:47.039Z,4.17
2017-08-20T09:32:14.551Z,4.83
2017-08-20T09:34:42.104Z,4.20
2017-08-20T09:37:09.606Z,5.07
2017-08-20T09:39:37.157Z,5.13
2017-08-20T09:42:04.682Z,3.93
2017-08-20T09:44:32.182Z,4.70
2017-08-20T09:46:59.691Z,4.70
2017-08-20T09:49:27.228Z,5.20
2017-08-20T09:51:54.732Z,4.47
2017-08-20T09:54:22.244Z,4.87
2017-08-20T09:56:49.780Z,4.10
2017-08-20T09:59:17.288Z,4.20
2017-08-20T10:01:44.803Z,4.27
2017-08-20T10:04:12.391Z,4.70
2017-08-20T10:06:39.899Z,3.90
2017-08-20T10:09:07.430Z,4.23
2017-08-20T10:11:35.027Z,4.43
2017-08-20T10:14:02.633Z,3.93
2017-08-20T10:16:30.202Z,4.93
2017-08-20T10:18:57.746Z,4.00
2017-08-20T10:21:25.347Z,11.07
2017-08-20T10:23:52.949Z,5.07
2017-08-20T10:26:20.519Z,8.70
2017-08-20T10:28:48.024Z,4.53
2017-08-20T10:31:15.529Z,4.80
2017-08-20T10:33:43.057Z,4.27
2017-08-20T10:36:10.570Z,4.40
2017-08-20T10:38:38.114Z,4.83
2017-08-20T10:41:05.610Z,4.20
2017-08-20T10:43:33.142Z,4.77
2017-08-20T10:46:00.669Z,5.83
2017-08-20T10:48:28.203Z,11.63
2017-08-20T10:50:55.751Z,5.27
2017-08-20T10:53:23.250Z,4.70
2017-08-20T10:55:50.787Z,4.40
2017-08-20T10:58:18.338Z,5.50
2017-08-20T11:00:45.862Z,4.60
2017-08-20T11:03:13.395Z,6.70
2017-08-20T11:05:41.132Z,4.03
2017-08-20T11:08:08.643Z,3.67
2017-08-20T11:10:36.179Z,4.13
2017-08-20T11:13:03.682Z,3.90
2017-08-20T11:15:31.188Z,4.13
2017-08-20T11:17:59.353Z,5.03
2017-08-20T11:20:26.878Z,4.67
2017-08-20T11:22:54.492Z,4.47
2017-08-20T11:25:22.026Z,4.17
2017-08-20T11:27:49.550Z,4.33
2017-08-20T11:30:17.127Z,6.10
2017-08-20T11:32:44.682Z,7.87
2017-08-20T11:35:12.226Z,4.70
2017-08-20T11:37:39.750Z,5.03
2017-08-20T11:40:07.279Z,4.47
2017-08-20T11:42:34.819Z,4.03
2017-08-20T11:45:02.351Z,4.10
2017-08-20T11:47:29.884Z,3.93
2017-08-20T11:49:57.406Z,4.03
2017-08-20T11:52:24.926Z,3.30
2017-08-20T11:54:52.439Z,5.03
2017-08-20T11:57:19.962Z,4.43
2017-08-20T11:59:47.494Z,7.97
2017-08-20T12:02:15.018Z,4.40
2017-08-20T12:04:42.518Z,4.80
2017-08-20T12:07:10.043Z,4.80
2017-08-20T12:09:37.552Z,4.57
2017-08-20T12:12:05.050Z,6.40
2017-08-20T12:14:32.591Z,6.70
2017-08-20T12:17:00.094Z,5.17
2017-08-20T12:19:27.615Z,4.50
2017-08-20T12:21:55.110Z,4.07
2017-08-20T12:24:22.635Z,4.60
2017-08-20T12:26:50.162Z,4.60
2017-08-20T12:29:17.695Z,4.37
2017-08-20T12:31:45.198Z,5.43
2017-08-20T12:34:12.712Z,7.80
2017-08-20T12:36:40.256Z,4.80
2017-08-20T12:39:07.767Z,8.33
2017-08-20T12:41:35.289Z,3.83
2017-08-20T12:44:02.851Z,4.17
2017-08-20T12:46:30.354Z,4.33
2017-08-20T12:48:57.886Z,4.87
2017-08-20T12:51:25.411Z,4.13
2017-08-20T12:53:52.907Z,4.63
2017-08-20T12:56:20.410Z,4.50
2017-08-20T12:58:47.942Z,5.37
2017-08-20T13:01:15.507Z,4.80
2017-08-20T13:03:43.019Z,4.17
2017-08-20T13:06:10.526Z,5.20
2017-08-20T13:08:38.054Z,4.20
2017-08-20T13:11:05.579Z,3.60
2017-08-20T13:13:33.110Z,3.90
2017-08-20T13:16:00.713Z,3.90
2017-08-20T13:18:28.222Z,5.50
2017-08-20T13:20:55.730Z,8.83
2017-08-20T13:23:23.311Z,5.83
2017-08-20T13:25:50.846Z,5.20
2017-08-20T13:28:18.354Z,5.30
2017-08-20T13:30:45.867Z,5.03
2017-08-20T13:33:13.451Z,4.17
2017-08-20T13:35:40.958Z,4.07
2017-08-20T13:38:08.496Z,4.77
2017-08-20T13:40:36.068Z,4.73
2017-08-20T13:43:03.924Z,4.60
2017-08-20T13:45:31.458Z,4.57
2017-08-20T13:47:58.974Z,4.50
2017-08-20T13:50:26.603Z,5.53
2017-08-20T13:52:54.126Z,5.30
2017-08-20T13:55:21.654Z,4.10
2017-08-20T13:57:49.215Z,4.70
2017-08-20T14:00:16.753Z,5.10
2017-08-20T14:02:44.321Z,6.63
2017-08-20T14:05:11.915Z,5.10
2017-08-20T14:07:39.442Z,5.30
2017-08-20T14:10:06.960Z,4.43
2017-08-20T14:12:34.482Z,4.83
2017-08-20T14:15:02.038Z,6.73
2017-08-20T14:17:29.596Z,5.10
2017-08-20T14:19:57.108Z,6.30
2017-08-20T14:22:24.711Z,11.57
2017-08-20T14:24:52.250Z,4.37
2017-08-20T14:27:19.782Z,8.47
2017-08-20T14:29:47.327Z,4.67
2017-08-20T14:32:14.827Z,6.13
2017-08-20T14:34:42.430Z,4.33
2017-08-20T14:37:09.979Z,5.00
2017-08-20T14:39:37.488Z,4.90
2017-08-20T14:42:05.013Z,4.67
2017-08-20T14:44:32.547Z,4.97
2017-08-20T14:47:00.073Z,4.87
2017-08-20T14:49:27.618Z,4.53
2017-08-20T14:51:55.124Z,4.20
2017-08-20T14:54:22.667Z,5.43
2017-08-20T14:56:50.190Z,5.10
2017-08-20T14:59:17.699Z,4.30
2017-08-20T15:01:45.230Z,5.33
2017-08-20T15:04:12.763Z,4.63
2017-08-20T15:06:40.271Z,9.47
2017-08-20T15:09:07.808Z,4.80
2017-08-20T15:11:35.858Z,5.13
2017-08-20T15:14:03.411Z,5.17
2017-08-20T15:16:31.459Z,5.27
2017-08-20T15:18:59.201Z,5.10
2017-08-20T15:21:26.863Z,5.07
2017-08-20T15:23:54.676Z,5.43
2017-08-20T15:26:22.182Z,4.60
2017-08-20T15:28:49.717Z,4.67
2017-08-20T15:31:17.242Z,4.60
2017-08-20T15:33:44.742Z,4.80
2017-08-20T15:36:12.538Z,5.60
2017-08-20T15:38:40.351Z,5.30
2017-08-20T15:41:08.098Z,4.40
2017-08-20T15:43:35.612Z,5.53
2017-08-20T15:46:03.320Z,5.17
2017-08-20T15:48:30.982Z,4.80
2017-08-20T15:50:58.484Z,5.53
2017-08-20T15:53:26.010Z,6.00
2017-08-20T15:55:53.522Z,5.07
2017-08-20T15:58:21.031Z,4.73
2017-08-20T16:00:48.566Z,4.80
2017-08-20T16:03:16.084Z,5.30
2017-08-20T16:05:43.590Z,5.93
2017-08-20T16:08:11.133Z,7.60
2017-08-20T16:10:38.638Z,5.70
2017-08-20T16:13:06.143Z,4.80
2017-08-20T16:15:33.687Z,8.50
2017-08-20T16:18:01.225Z,5.70
2017-08-20T16:20:28.728Z,9.80
2017-08-20T16:22:56.271Z,6.47
2017-08-20T16:25:23.780Z,5.77
2017-08-20T16:27:51.296Z,6.80
2017-08-20T16:30:18.830Z,6.37
2017-08-20T16:32:46.330Z,8.13
2017-08-20T16:35:13.859Z,5.40
2017-08-20T16:37:41.399Z,5.63
2017-08-20T16:40:08.903Z,5.23
2017-08-20T16:42:36.412Z,6.70
2017-08-20T16:45:03.947Z,6.20
2017-08-20T16:47:31.451Z,6.23
2017-08-20T16:49:58.955Z,5.83
2017-08-20T16:52:26.486Z,6.00
2017-08-20T16:54:53.986Z,5.40
2017-08-20T16:57:21.495Z,5.53
2017-08-20T16:59:49.025Z,4.67
2017-08-20T17:02:16.551Z,5.30
2017-08-20T17:04:44.372Z,5.67
2017-08-20T17:07:11.901Z,6.03
2017-08-20T17:09:39.442Z,5.27
2017-08-20T17:12:06.946Z,5.43
2017-08-20T17:14:34.446Z,6.60
2017-08-20T17:17:01.978Z,4.93
2017-08-20T17:19:29.482Z,5.37
2017-08-20T17:21:56.987Z,7.03
2017-08-20T17:24:24.514Z,5.20
2017-08-20T17:26:52.018Z,5.03
2017-08-20T17:29:19.519Z,4.97
2017-08-20T17:31:47.555Z,5.10
2017-08-20T17:34:15.538Z,4.70
2017-08-20T17:36:43.047Z,4.70
2017-08-20T17:39:10.575Z,5.27
2017-08-20T17:41:38.098Z,5.30
2017-08-20T17:44:05.628Z,4.60
2017-08-20T17:46:33.154Z,5.43
2017-08-20T17:49:00.659Z,5.07
2017-08-20T17:51:28.171Z,5.10
2017-08-20T17:53:55.699Z,5.43
2017-08-20T17:56:23.204Z,5.13
2017-08-20T17:58:50.731Z,4.73
2017-08-20T18:01:18.236Z,7.17
2017-08-20T18:03:45.770Z,6.57
2017-08-20T18:06:13.342Z,5.00
2017-08-20T18:08:40.848Z,5.20
2017-08-20T18:11:08.354Z,5.53
2017-08-20T18:13:35.885Z,6.20
2017-08-20T18:16:03.411Z,6.93
2017-08-20T18:18:30.938Z,8.00
2017-08-20T18:20:58.462Z,6.80
2017-08-20T18:23:25.967Z,5.20
2017-08-20T18:25:53.552Z,6.20
2017-08-20T18:28:21.083Z,5.13
2017-08-20T18:30:48.590Z,6.60
2017-08-20T18:33:16.102Z,6.47
2017-08-20T18:35:43.639Z,6.40
2017-08-20T18:38:11.171Z,6.70
2017-08-20T18:40:38.679Z,7.70
2017-08-20T18:43:06.276Z,7.73
2017-08-20T18:45:33.806Z,6.30
2017-08-20T18:48:01.319Z,6.23
2017-08-20T18:50:28.835Z,7.93
2017-08-20T18:52:56.399Z,6.30
2017-08-20T18:55:23.902Z,6.73
2017-08-20T18:57:51.415Z,6.70
2017-08-20T19:02:01.779Z,6.27
2017-08-20T19:04:29.298Z,6.10
2017-08-20T19:06:56.802Z,5.23
2017-08-20T19:09:24.329Z,6.50
2017-08-20T19:11:51.842Z,6.57
2017-08-20T19:14:19.361Z,6.23
2017-08-20T19:16:46.896Z,5.13
2017-08-20T19:19:14.409Z,5.77
2017-08-20T19:21:41.927Z,5.67
2017-08-20T19:24:09.458Z,6.03
2017-08-20T19:26:36.970Z,5.83
2017-08-20T19:29:04.482Z,5.40
2017-08-20T19:31:32.018Z,5.00
2017-08-20T19:33:59.527Z,5.00
2017-08-20T19:36:27.039Z,4.80
2017-08-20T19:38:54.576Z,5.00
2017-08-20T19:41:22.090Z,5.97
2017-08-20T19:43:49.598Z,5.70
2017-08-20T19:46:17.131Z,5.57
2017-08-20T19:48:44.644Z,5.20
2017-08-20T19:51:12.154Z,5.33
2017-08-20T19:53:39.690Z,5.17
2017-08-20T19:56:07.199Z,6.00
2017-08-20T19:58:34.716Z,5.87
2017-08-20T20:01:02.251Z,5.33
2017-08-20T20:03:29.759Z,5.67
2017-08-20T20:05:57.277Z,5.10
2017-08-20T20:08:24.808Z,6.03
2017-08-20T20:10:52.381Z,5.40
2017-08-20T20:13:19.890Z,5.07
2017-08-20T20:15:47.429Z,5.80
2017-08-20T20:18:14.942Z,5.37
2017-08-20T20:20:42.460Z,5.57
2017-08-20T20:23:10.019Z,5.20
2017-08-20T20:25:37.532Z,5.30
2017-08-20T20:28:05.056Z,6.10
2017-08-20T20:30:32.586Z,6.43
2017-08-20T20:33:00.097Z,5.97
2017-08-20T20:35:27.650Z,5.97
2017-08-20T20:37:55.203Z,5.53
2017-08-20T20:40:22.817Z,5.73
2017-08-20T20:42:50.350Z,5.60
2017-08-20T20:45:17.903Z,5.67
2017-08-20T20:47:45.414Z,6.07
2017-08-20T20:50:12.927Z,6.27
2017-08-20T20:52:40.456Z,5.97
2017-08-20T20:55:07.962Z,5.53
2017-08-20T20:57:35.471Z,4.97
2017-08-20T21:00:03.006Z,5.50
2017-08-20T21:02:30.510Z,5.20
2017-08-20T21:04:58.016Z,5.53
2017-08-20T21:07:25.556Z,5.80
2017-08-20T21:09:53.087Z,5.93
2017-08-20T21:12:20.622Z,5.47
2017-08-20T21:14:48.131Z,6.40
2017-08-20T21:17:15.643Z,5.40
2017-08-20T21:19:43.178Z,6.03
2017-08-20T21:22:10.691Z,6.60
2017-08-20T21:24:38.207Z,5.60
2017-08-20T21:27:05.741Z,5.33
2017-08-20T21:29:33.275Z,6.50
2017-08-20T21:32:00.814Z,6.17
2017-08-20T21:34:28.323Z,5.40
2017-08-20T21:36:55.866Z,5.83
2017-08-20T21:39:23.374Z,5.83
2017-08-20T21:41:50.878Z,6.63
2017-08-20T21:44:18.418Z,6.70
2017-08-20T21:46:45.951Z,6.47
2017-08-20T21:49:13.482Z,6.90
2017-08-20T21:51:40.995Z,6.40
2017-08-20T21:54:08.542Z,6.43
2017-08-20T21:56:36.051Z,6.90
2017-08-20T21:59:03.563Z,6.30
2017-08-20T22:01:31.101Z,5.63
2017-08-20T22:03:58.638Z,6.07
2017-08-20T22:06:26.170Z,6.47
2017-08-20T22:08:53.676Z,6.30
2017-08-20T22:11:21.183Z,6.07
2017-08-20T22:13:49.120Z,5.70
2017-08-20T22:16:16.630Z,5.90
2017-08-20T22:18:44.150Z,6.37
2017-08-20T22:21:11.687Z,6.50
2017-08-20T22:23:39.208Z,6.03
2017-08-20T22:26:06.733Z,6.40
2017-08-20T22:28:34.268Z,6.97
2017-08-20T22:31:01.778Z,6.27
2017-08-20T22:33:29.290Z,6.07
2017-08-20T22:35:56.830Z,6.40
2017-08-20T22:38:24.361Z,6.90
2017-08-20T22:40:51.874Z,6.07
2017-08-20T22:43:19.448Z,6.27
2017-08-20T22:45:46.958Z,5.77
2017-08-20T22:48:14.483Z,6.60
2017-08-20T22:50:42.013Z,5.80
2017-08-20T22:53:09.545Z,6.27
2017-08-20T22:55:37.079Z,6.10
2017-08-20T22:58:04.582Z,6.37
2017-08-20T23:00:32.115Z,6.07
2017-08-20T23:02:59.631Z,6.60
2017-08-20T23:05:27.163Z,7.00
2017-08-20T23:07:54.702Z,5.90
2017-08-20T23:10:22.211Z,6.10
2017-08-20T23:12:49.737Z,6.43
2017-08-20T23:15:17.267Z,5.93
2017-08-20T23:17:44.776Z,5.73
2017-08-20T23:20:12.311Z,6.93
2017-08-20T23:22:39.839Z,6.43
2017-08-20T23:25:07.357Z,6.33
2017-08-20T23:27:34.890Z,8.43
2017-08-20T23:30:02.407Z,7.70
2017-08-20T23:32:29.919Z,8.77
2017-08-20T23:34:57.447Z,8.37
2017-08-20T23:37:24.958Z,8.47
2017-08-20T23:39:52.462Z,7.67
2017-08-20T23:42:19.998Z,8.80
2017-08-20T23:44:47.508Z,9.03
2017-08-20T23:47:15.019Z,8.30
2017-08-20T23:49:42.557Z,9.50
2017-08-20T23:52:10.072Z,9.70
2017-08-20T23:54:37.578Z,9.13
2017-08-20T23:57:05.115Z,8.30
2017-08-20T23:59:32.631Z,9.10
